Aérodrome :
LOGIN :

S'inscrire | Disclaimer

   EN    FR    IT 

 










Légende :    VFR   VFR Marginal   IFR   IFR Intensif   IFR Très Intensif
Visi : 
Plafond : 
>= 8 km
>= 3000ft
5 à 8 km
1000 à 3000 ft
1500m à 5 km
500 à 1000 ft
800 à 1500m
200 à 500 ft
< 800m
< 200 ft
Symboles :   Orages  Brouillard  Fortes neiges  Fortes précipitations  Vent > 20 kt
SIGMETs :   Divers  Orages  Givrage  Turbulence  Onde Orograph.  Cendres Volcan.






- Altitude de l'aérodrome : 65 ft
- Code IATA : PIK


EGPK - Glasgow Prestwick

DERNIER METAR :
  • 010350Z 28009KT 9999 SCT046 07/03 Q1027

METARs EXPIRÉS :
  • 010250Z 30007KT 9999 SCT016 07/04 Q1027
  • 010150Z 30005KT 9999 SCT016 07/04 Q1028

TAF TAF EGPK
Valide du 01 à 00h jusqu'au 02 à 00h UTC


312321Z 0100/0124 29007KT 9999 SCT040
TEMPO 0115/0120 27015G25KT 6000 -RADZ BKN012
PROB30
TEMPO 0116/0119 4000 RADZ BKN007
PROB30
TEMPO 0120/0124 28015G25KT



MET'MAP, la Météo Aéronautique d'un coup d'oeil ! - Copyright ORBIFLY Décembre 2007 - Disclaimer

ORBIFLY MET'MAP TEAM :

Programmation & Développement : Alexandra Zaïnal
Sur une idée originale de : Baudouin d'Aumeries
Assistance à la programmation : Marc-Olivier Méhu
Soutien technique & logistique : Manuel Goepfert

Contact : metmap@orbifly.com




SOURCES & CREDITS :

   NOAA